createdAt,value
2023-08-09T00:02:36.424Z,12.26
2023-08-09T00:07:39.371Z,12.19
2023-08-09T00:12:42.323Z,12.11
2023-08-09T00:17:46.089Z,12.12
2023-08-09T00:22:49.008Z,12.19
2023-08-09T00:27:52.010Z,12.26
2023-08-09T00:32:55.108Z,12.31
2023-08-09T00:37:57.987Z,12.34
2023-08-09T00:43:00.841Z,12.37
2023-08-09T00:48:04.042Z,12.38
2023-08-09T00:53:07.883Z,12.37
2023-08-09T00:58:10.807Z,12.36
2023-08-09T01:03:15.247Z,12.35
2023-08-09T01:08:37.833Z,12.36
2023-08-09T01:13:41.727Z,12.42
2023-08-09T01:18:45.081Z,12.41
2023-08-09T01:23:49.811Z,12.40
2023-08-09T01:28:52.667Z,12.37
2023-08-09T01:33:55.634Z,12.34
2023-08-09T01:39:01.661Z,12.31
2023-08-09T01:44:08.993Z,12.32
2023-08-09T01:49:17.187Z,12.30
2023-08-09T01:54:20.622Z,12.25
2023-08-09T01:59:24.451Z,12.23
2023-08-09T02:04:27.339Z,12.18
2023-08-09T02:09:30.228Z,12.14
2023-08-09T02:14:33.222Z,12.10
2023-08-09T02:19:36.375Z,12.03
2023-08-09T02:24:39.256Z,11.95
2023-08-09T02:29:42.172Z,11.83
2023-08-09T02:34:44.913Z,11.71
2023-08-09T02:39:47.761Z,11.63
2023-08-09T02:44:50.720Z,11.55
2023-08-09T02:49:53.464Z,11.48
2023-08-09T02:54:56.960Z,11.44
2023-08-09T02:59:59.841Z,11.41
2023-08-09T03:05:05.332Z,11.36
2023-08-09T03:10:09.028Z,11.33
2023-08-09T03:15:12.812Z,11.30
2023-08-09T03:20:15.762Z,11.26
2023-08-09T03:25:18.650Z,11.22
2023-08-09T03:30:21.480Z,11.18
2023-08-09T03:35:24.421Z,11.14
2023-08-09T03:40:27.317Z,11.17
2023-08-09T03:45:30.326Z,11.21
2023-08-09T03:50:33.061Z,11.35
2023-08-09T03:55:36.032Z,11.49
2023-08-09T04:00:38.819Z,11.64
2023-08-09T04:05:42.684Z,11.76
2023-08-09T04:10:45.523Z,11.86
2023-08-09T04:15:49.178Z,12.01
2023-08-09T04:20:52.274Z,12.15
2023-08-09T04:25:55.769Z,12.29
2023-08-09T04:30:58.645Z,12.42
2023-08-09T04:36:01.439Z,12.55
2023-08-09T04:41:05.221Z,12.61
2023-08-09T04:46:08.085Z,12.68
2023-08-09T04:51:11.231Z,12.72
2023-08-09T04:56:14.126Z,12.71
2023-08-09T05:01:16.944Z,12.81
2023-08-09T05:06:19.848Z,12.92
2023-08-09T05:11:22.762Z,13.00
2023-08-09T05:16:27.216Z,13.03
2023-08-09T05:21:30.190Z,12.97
2023-08-09T05:26:32.905Z,12.97
2023-08-09T05:31:35.827Z,13.04
2023-08-09T05:36:38.743Z,13.20
2023-08-09T05:41:41.516Z,13.36
2023-08-09T05:46:44.640Z,13.67
2023-08-09T05:51:47.659Z,13.94
2023-08-09T05:56:50.420Z,14.18
2023-08-09T06:01:53.497Z,14.43
2023-08-09T06:06:56.417Z,14.65
2023-08-09T06:11:59.411Z,14.58
2023-08-09T06:17:03.407Z,14.61
2023-08-09T06:22:06.795Z,14.72
2023-08-09T06:27:10.079Z,15.14
2023-08-09T06:32:13.026Z,15.55
2023-08-09T06:37:15.858Z,15.82
2023-08-09T06:42:18.712Z,16.06
2023-08-09T06:47:21.567Z,16.33
2023-08-09T06:52:24.591Z,16.24
2023-08-09T06:57:27.667Z,16.10
2023-08-09T07:02:31.346Z,15.71
2023-08-09T07:07:34.651Z,15.37
2023-08-09T07:12:37.744Z,15.34
2023-08-09T07:17:40.951Z,15.46
2023-08-09T07:22:45.719Z,15.56
2023-08-09T07:27:50.548Z,15.60
2023-08-09T07:32:56.588Z,15.56
2023-08-09T07:38:00.342Z,15.68
2023-08-09T07:43:03.986Z,15.94
2023-08-09T07:48:07.253Z,16.31
2023-08-09T07:53:10.233Z,16.48
2023-08-09T07:58:13.312Z,16.57
2023-08-09T08:03:16.273Z,16.86
2023-08-09T08:08:20.264Z,17.21
2023-08-09T08:13:23.374Z,17.54
2023-08-09T08:18:28.546Z,17.90
2023-08-09T08:23:33.524Z,17.93
2023-08-09T08:28:37.142Z,18.12
2023-08-09T08:33:46.725Z,18.58
2023-08-09T08:38:51.254Z,18.67
2023-08-09T08:43:55.280Z,19.00
2023-08-09T08:49:01.716Z,19.13
2023-08-09T08:54:05.118Z,18.85
2023-08-09T08:59:08.914Z,18.41
2023-08-09T09:04:11.858Z,18.09
2023-08-09T09:09:18.845Z,18.17
2023-08-09T09:14:22.809Z,18.59
2023-08-09T09:19:25.750Z,18.80
2023-08-09T09:24:30.615Z,19.06
2023-08-09T09:29:34.516Z,19.52
2023-08-09T09:34:39.601Z,19.92
2023-08-09T09:39:47.432Z,20.18
2023-08-09T09:44:50.341Z,20.14
2023-08-09T09:49:54.238Z,19.75
2023-08-09T09:54:58.012Z,19.31
2023-08-09T10:00:07.819Z,19.29
2023-08-09T10:05:12.441Z,19.68
2023-08-09T10:10:16.605Z,20.07
2023-08-09T10:15:24.927Z,20.01
2023-08-09T10:20:28.675Z,19.77
2023-08-09T10:25:46.190Z,19.50
2023-08-09T10:30:53.276Z,19.39
2023-08-09T10:35:56.260Z,19.45
2023-08-09T10:41:08.131Z,19.45
2023-08-09T10:46:24.118Z,19.40
2023-08-09T10:51:27.219Z,19.51
2023-08-09T10:56:42.269Z,19.90
2023-08-09T11:01:45.214Z,20.23
2023-08-09T11:06:50.361Z,20.47
2023-08-09T11:11:53.706Z,20.57
2023-08-09T11:17:02.443Z,20.66
2023-08-09T11:22:06.099Z,20.38
2023-08-09T11:27:24.396Z,20.06
2023-08-09T11:32:32.726Z,19.94
2023-08-09T11:37:35.808Z,19.97
2023-08-09T11:42:38.758Z,20.40
2023-08-09T11:47:49.977Z,20.84
2023-08-09T11:52:55.448Z,21.24
2023-08-09T11:57:58.818Z,21.41
2023-08-09T12:03:06.979Z,21.38
2023-08-09T12:08:15.569Z,21.19
2023-08-09T12:13:25.605Z,21.11
2023-08-09T12:18:29.722Z,21.12
2023-08-09T12:23:37.955Z,21.45
2023-08-09T12:28:42.086Z,21.87
2023-08-09T12:33:46.075Z,22.16
2023-08-09T12:38:50.863Z,22.45
2023-08-09T12:43:56.656Z,22.65
2023-08-09T12:49:00.119Z,22.42
2023-08-09T12:54:03.032Z,22.41
2023-08-09T12:59:07.101Z,22.22
2023-08-09T13:04:10.491Z,22.03
2023-08-09T13:09:13.450Z,22.13
2023-08-09T13:14:16.390Z,22.24
2023-08-09T13:19:19.220Z,22.26
2023-08-09T13:24:22.444Z,22.46
2023-08-09T13:29:25.296Z,22.62
2023-08-09T13:34:28.138Z,22.65
2023-08-09T13:39:31.683Z,22.42
2023-08-09T13:44:34.614Z,21.71
2023-08-09T13:49:37.841Z,20.96
2023-08-09T13:54:41.269Z,20.73
2023-08-09T13:59:44.852Z,20.63
2023-08-09T14:04:48.029Z,20.71
2023-08-09T14:09:52.096Z,21.15
2023-08-09T14:14:57.486Z,21.34
2023-08-09T14:20:04.766Z,21.75
2023-08-09T14:25:10.896Z,22.47
2023-08-09T14:30:16.914Z,23.37
2023-08-09T14:35:21.501Z,24.24
2023-08-09T14:40:28.059Z,24.63
2023-08-09T14:45:31.709Z,24.74
2023-08-09T14:50:35.288Z,25.52
2023-08-09T14:55:38.330Z,25.55
2023-08-09T15:00:42.118Z,25.05
2023-08-09T15:05:45.038Z,24.11
2023-08-09T15:10:47.894Z,22.65
2023-08-09T15:15:50.723Z,21.24
2023-08-09T15:20:53.643Z,20.39
2023-08-09T15:25:56.478Z,20.73
2023-08-09T15:31:00.407Z,20.62
2023-08-09T15:36:03.966Z,19.97
2023-08-09T15:41:06.872Z,19.40
2023-08-09T15:46:09.880Z,18.95
2023-08-09T15:51:14.509Z,18.84
2023-08-09T15:56:18.790Z,19.26
2023-08-09T16:01:24.807Z,19.96
2023-08-09T16:06:28.345Z,20.41
2023-08-09T16:11:40.013Z,20.56
2023-08-09T16:16:44.381Z,20.89
2023-08-09T16:22:02.609Z,23.24
2023-08-09T16:27:09.840Z,25.91
2023-08-09T16:32:13.148Z,27.06
2023-08-09T16:37:20.508Z,27.69
2023-08-09T16:42:26.616Z,28.90
2023-08-09T16:47:38.880Z,29.97
2023-08-09T16:52:47.545Z,29.44
2023-08-09T16:57:51.990Z,28.03
2023-08-09T17:02:55.834Z,26.77
2023-08-09T17:08:00.031Z,25.56
2023-08-09T17:13:04.962Z,24.48
2023-08-09T17:18:08.832Z,23.72
2023-08-09T17:23:16.608Z,22.91
2023-08-09T17:28:21.335Z,22.12
2023-08-09T17:33:25.602Z,21.43
2023-08-09T17:38:37.520Z,20.78
2023-08-09T17:43:40.947Z,20.09
2023-08-09T17:48:43.897Z,19.48
2023-08-09T17:53:46.761Z,18.98
2023-08-09T17:58:49.651Z,18.55
2023-08-09T18:03:52.867Z,18.13
2023-08-09T18:08:55.747Z,17.76
2023-08-09T18:13:59.342Z,17.39
2023-08-09T18:19:05.263Z,17.06
2023-08-09T18:24:08.328Z,16.77
2023-08-09T18:29:14.915Z,16.50
2023-08-09T18:34:17.876Z,16.24
2023-08-09T18:39:20.784Z,16.01
2023-08-09T18:44:23.651Z,15.79
2023-08-09T18:49:26.541Z,15.58
2023-08-09T18:54:31.117Z,15.37
2023-08-09T18:59:37.743Z,15.18
2023-08-09T19:04:44.282Z,14.99
2023-08-09T19:09:48.306Z,14.82
2023-08-09T19:14:52.249Z,14.66
2023-08-09T19:19:58.726Z,14.52
2023-08-09T19:25:04.960Z,14.38
2023-08-09T19:30:09.321Z,14.23
2023-08-09T19:35:16.829Z,14.10
2023-08-09T19:40:23.852Z,14.07
2023-08-09T19:45:31.500Z,14.04
2023-08-09T19:50:35.616Z,14.03
2023-08-09T19:55:38.461Z,14.01
2023-08-09T20:00:41.256Z,13.98
2023-08-09T20:05:44.149Z,13.92
2023-08-09T20:10:46.875Z,13.85
2023-08-09T20:15:49.735Z,13.78
2023-08-09T20:20:53.260Z,13.73
2023-08-09T20:25:56.211Z,13.69
2023-08-09T20:31:00.509Z,13.64
2023-08-09T20:36:03.660Z,13.62
2023-08-09T20:41:06.549Z,13.58
2023-08-09T20:46:09.384Z,13.49
2023-08-09T20:51:12.436Z,13.36
2023-08-09T20:56:15.268Z,13.24
2023-08-09T21:01:18.134Z,13.20
2023-08-09T21:06:21.880Z,13.22
2023-08-09T21:11:24.791Z,13.27
2023-08-09T21:16:28.013Z,13.28
2023-08-09T21:21:30.994Z,13.25
2023-08-09T21:26:33.812Z,13.17
2023-08-09T21:31:36.790Z,13.10
2023-08-09T21:36:39.646Z,13.09
2023-08-09T21:41:42.555Z,13.07
2023-08-09T21:46:45.416Z,13.00
2023-08-09T21:51:48.322Z,12.93
2023-08-09T21:56:51.326Z,12.89
2023-08-09T22:01:54.121Z,12.91
2023-08-09T22:06:57.413Z,12.87
2023-08-09T22:12:00.272Z,12.83
2023-08-09T22:17:03.118Z,12.79
2023-08-09T22:22:14.247Z,12.75
2023-08-09T22:27:17.632Z,12.76
2023-08-09T22:32:20.656Z,12.73
2023-08-09T22:37:23.550Z,12.68
2023-08-09T22:42:26.458Z,12.66
2023-08-09T22:47:29.385Z,12.65
2023-08-09T22:52:32.158Z,12.63
2023-08-09T22:57:36.276Z,12.58
2023-08-09T23:02:42.672Z,12.49
2023-08-09T23:07:45.933Z,12.40
2023-08-09T23:12:48.736Z,12.39
2023-08-09T23:17:52.133Z,12.51
2023-08-09T23:22:56.585Z,12.59
2023-08-09T23:27:59.437Z,12.56
2023-08-09T23:33:04.100Z,12.52
2023-08-09T23:38:07.356Z,12.52
2023-08-09T23:43:10.107Z,12.57
2023-08-09T23:48:13.085Z,12.57
2023-08-09T23:53:16.210Z,12.46
2023-08-09T23:58:19.139Z,12.35
